Time;durP1;ratioP1;P1;durP2;ratioP2;P2;SDS_P1;SDS_P2;PMS_P1;PMS_P2;Temp;Humidity;BMP_temperature;BMP_pressure;BME280_temperature;BME280_humidity;BME280_pressure;Samples;Min_cycle;Max_cycle;Signal;HPM_P1;HPM_P2
2022/10/21 00:01:35;;;;;;;27.87;12.70;;;14.90;99.90;;;;;;5071738;28;20440;-57
2022/10/21 00:04:02;;;;;;;25.50;12.30;;;14.90;99.90;;;;;;5070390;28;20376;-54
2022/10/21 00:06:28;;;;;;;30.90;13.50;;;14.90;99.90;;;;;;5071474;28;20694;-55
2022/10/21 00:08:54;;;;;;;23.75;12.43;;;14.80;99.90;;;;;;5070583;28;20387;-55
2022/10/21 00:11:19;;;;;;;28.17;13.83;;;14.70;99.90;;;;;;5071891;28;20448;-54
2022/10/21 00:13:45;;;;;;;27.97;13.40;;;14.60;99.90;;;;;;5071265;28;20830;-55
2022/10/21 00:16:13;;;;;;;26.48;13.13;;;14.70;99.90;;;;;;5072175;28;20391;-54
2022/10/21 00:18:41;;;;;;;28.33;13.68;;;14.60;99.90;;;;;;5071874;28;20384;-54
2022/10/21 00:21:12;;;;;;;33.95;14.05;;;14.60;99.90;;;;;;5070831;28;20850;-55
2022/10/21 00:23:38;;;;;;;26.35;13.50;;;14.70;99.90;;;;;;5071497;28;20860;-54
2022/10/21 00:26:04;;;;;;;29.05;13.15;;;14.80;99.90;;;;;;5070635;28;20374;-54
2022/10/21 00:28:30;;;;;;;26.95;12.57;;;14.90;99.90;;;;;;5071344;28;20380;-55
2022/10/21 00:30:56;;;;;;;27.90;13.77;;;14.70;99.90;;;;;;5070607;28;20853;-54
2022/10/21 00:33:22;;;;;;;24.52;12.32;;;14.70;99.90;;;;;;5070804;28;20482;-54
2022/10/21 00:35:57;;;;;;;29.08;13.65;;;14.70;99.90;;;;;;5070684;28;20451;-55
2022/10/21 00:38:22;;;;;;;26.80;13.00;;;14.60;99.90;;;;;;5070835;28;20459;-54
2022/10/21 00:40:48;;;;;;;28.88;13.95;;;14.40;99.90;;;;;;5070187;28;20482;-55
2022/10/21 00:43:14;;;;;;;29.77;14.13;;;14.50;99.90;;;;;;5071187;28;20470;-54
2022/10/21 00:45:40;;;;;;;26.08;12.90;;;14.50;99.90;;;;;;5071242;28;20368;-54
2022/10/21 00:48:37;;;;;;;27.63;12.45;;;14.50;99.90;;;;;;5069482;28;20454;-55
2022/10/21 00:51:10;;;;;;;29.27;14.57;;;14.50;99.90;;;;;;5063273;28;20950;-55
2022/10/21 00:53:39;;;;;;;29.70;13.15;;;14.60;99.90;;;;;;5070514;28;20384;-54
2022/10/21 00:56:11;;;;;;;30.55;14.30;;;14.70;99.90;;;;;;5069790;28;20706;-54
2022/10/21 00:58:37;;;;;;;28.65;12.80;;;14.60;99.90;;;;;;5070327;28;20387;-54
2022/10/21 01:01:06;;;;;;;31.75;15.07;;;14.70;99.90;;;;;;5069743;28;20429;-54
2022/10/21 01:03:32;;;;;;;29.05;14.80;;;14.40;99.90;;;;;;5070489;28;20463;-54
2022/10/21 01:06:02;;;;;;;28.48;14.07;;;14.30;99.90;;;;;;5069435;28;20383;-54
2022/10/21 01:08:28;;;;;;;28.90;13.13;;;14.30;99.90;;;;;;5070442;28;20376;-54
2022/10/21 01:10:55;;;;;;;33.67;13.70;;;14.20;99.90;;;;;;5069257;28;20407;-54
2022/10/21 01:14:02;;;;;;;28.77;15.02;;;14.10;99.90;;;;;;5069060;28;20741;-54
2022/10/21 01:17:03;;;;;;;29.45;13.90;;;14.10;99.90;;;;;;5070119;28;20387;-55
2022/10/21 01:19:51;;;;;;;36.88;14.65;;;14.00;99.90;;;;;;5070479;28;20379;-54
2022/10/21 01:22:46;;;;;;;32.15;14.52;;;14.10;99.90;;;;;;5070044;28;20667;-54
2022/10/21 01:25:14;;;;;;;30.45;14.45;;;14.10;99.90;;;;;;5070060;28;20374;-54
2022/10/21 01:28:04;;;;;;;26.63;13.85;;;14.20;99.90;;;;;;5070510;28;20388;-54
2022/10/21 01:30:51;;;;;;;33.85;14.45;;;14.10;99.90;;;;;;5069608;28;20408;-54
2022/10/21 01:33:34;;;;;;;27.70;14.40;;;13.90;99.90;;;;;;5069900;28;20496;-55
2022/10/21 01:36:18;;;;;;;29.48;13.77;;;14.00;99.90;;;;;;5069671;28;20376;-55
2022/10/21 01:38:54;;;;;;;27.17;13.27;;;14.00;99.90;;;;;;5070183;28;20389;-55
2022/10/21 01:41:27;;;;;;;32.17;14.85;;;14.10;99.90;;;;;;5069937;28;20439;-55
2022/10/21 01:44:22;;;;;;;29.23;13.88;;;14.10;99.90;;;;;;5069625;28;20462;-55
2022/10/21 01:46:54;;;;;;;25.00;12.50;;;14.20;99.90;;;;;;5069153;28;20370;-55
2022/10/21 01:49:30;;;;;;;32.85;14.15;;;14.10;99.90;;;;;;5069876;28;20552;-54
2022/10/21 01:51:58;;;;;;;40.85;17.95;;;14.30;99.90;;;;;;5068000;28;20759;-55
2022/10/21 01:54:34;;;;;;;45.57;20.40;;;14.50;99.90;;;;;;5069601;28;20453;-55
2022/10/21 01:57:02;;;;;;;35.00;17.92;;;14.50;99.90;;;;;;5069453;28;20859;-54
2022/10/21 01:59:30;;;;;;;38.05;15.88;;;14.50;99.90;;;;;;5069575;28;20466;-54
2022/10/21 02:02:03;;;;;;;29.65;14.73;;;14.40;99.90;;;;;;5069429;28;20724;-54
2022/10/21 02:04:32;;;;;;;31.38;15.30;;;14.30;99.90;;;;;;5079283;28;20385;-55
2022/10/21 02:06:57;;;;;;;30.20;13.90;;;14.30;99.90;;;;;;5089574;28;20433;-54
2022/10/21 02:09:23;;;;;;;29.15;14.50;;;14.20;99.90;;;;;;5090021;28;20406;-55
2022/10/21 02:11:53;;;;;;;29.53;13.10;;;14.20;99.90;;;;;;5089480;28;20462;-55
2022/10/21 02:14:56;;;;;;;30.20;12.80;;;14.20;99.90;;;;;;5089811;28;20373;-54
2022/10/21 02:17:25;;;;;;;26.98;13.88;;;14.30;99.90;;;;;;5067846;28;20492;-54
2022/10/21 02:19:50;;;;;;;24.05;12.48;;;14.30;99.90;;;;;;5089440;28;20413;-55
2022/10/21 02:22:20;;;;;;;25.50;12.80;;;14.30;99.90;;;;;;5089990;28;20835;-54
2022/10/21 02:24:55;;;;;;;25.80;13.55;;;14.40;99.90;;;;;;5089260;28;20419;-55
2022/10/21 02:27:22;;;;;;;23.95;12.23;;;14.40;99.90;;;;;;5089203;28;21000;-55
2022/10/21 02:29:53;;;;;;;25.50;13.02;;;14.50;99.90;;;;;;5088895;28;20402;-56
2022/10/21 02:32:35;;;;;;;25.90;13.52;;;14.50;99.90;;;;;;5089263;28;20520;-54
2022/10/21 02:35:22;;;;;;;22.20;12.10;;;14.60;99.90;;;;;;5088886;28;20372;-55
2022/10/21 02:38:00;;;;;;;31.52;13.40;;;14.50;99.90;;;;;;5088705;28;20497;-55
2022/10/21 02:40:35;;;;;;;22.88;11.90;;;14.50;99.90;;;;;;5089501;28;20451;-54
2022/10/21 02:43:36;;;;;;;26.05;12.20;;;14.50;99.90;;;;;;5088998;28;20473;-54
2022/10/21 02:46:10;;;;;;;24.83;12.50;;;14.30;99.90;;;;;;5088134;28;20850;-54
2022/10/21 02:48:38;;;;;;;25.55;12.13;;;14.30;99.90;;;;;;5089634;28;20902;-54
2022/10/21 02:51:06;;;;;;;27.08;12.63;;;14.30;99.90;;;;;;5088220;28;20959;-55
2022/10/21 02:53:32;;;;;;;28.73;12.88;;;14.30;99.90;;;;;;5089646;28;20392;-54
2022/10/21 02:55:58;;;;;;;23.77;11.98;;;14.30;99.90;;;;;;5088794;28;20744;-54
2022/10/21 02:58:24;;;;;;;24.27;11.70;;;14.30;99.90;;;;;;5090051;28;20417;-54
2022/10/21 03:00:50;;;;;;;22.17;11.70;;;14.40;99.90;;;;;;5070659;28;20454;-54
2022/10/21 03:03:15;;;;;;;24.40;11.47;;;14.30;99.90;;;;;;5092129;28;20374;-54
2022/10/21 03:05:41;;;;;;;24.45;11.70;;;14.40;99.90;;;;;;5093640;28;20389;-55
2022/10/21 03:08:07;;;;;;;20.50;11.45;;;14.40;99.90;;;;;;5092468;28;20370;-54
2022/10/21 03:10:33;;;;;;;25.90;12.10;;;14.40;99.90;;;;;;5093032;28;20416;-54
2022/10/21 03:12:59;;;;;;;25.23;12.43;;;14.50;99.90;;;;;;5092582;28;20370;-55
2022/10/21 03:15:24;;;;;;;25.65;12.30;;;14.50;99.90;;;;;;5092956;28;20374;-54
2022/10/21 03:17:50;;;;;;;24.90;11.43;;;14.50;99.90;;;;;;5092002;28;20383;-54
2022/10/21 03:20:16;;;;;;;22.33;11.83;;;14.50;99.90;;;;;;5093249;28;20839;-54
2022/10/21 03:22:42;;;;;;;25.50;10.82;;;14.50;99.90;;;;;;5093151;28;20415;-54
2022/10/21 03:25:09;;;;;;;23.40;11.10;;;14.50;99.90;;;;;;5092403;28;20375;-54
2022/10/21 03:27:35;;;;;;;24.30;12.00;;;14.60;99.90;;;;;;5092993;28;20370;-54
2022/10/21 03:30:01;;;;;;;22.10;11.05;;;14.70;99.90;;;;;;5091652;28;20406;-55
2022/10/21 03:32:27;;;;;;;22.27;11.68;;;14.60;99.90;;;;;;5085968;28;20432;-54
2022/10/21 03:34:52;;;;;;;22.70;11.87;;;14.70;99.90;;;;;;5091875;28;20367;-54
2022/10/21 03:37:18;;;;;;;27.08;12.27;;;14.70;99.90;;;;;;5091729;28;20421;-54
2022/10/21 03:39:43;;;;;;;23.77;12.40;;;14.80;99.90;;;;;;5091500;28;20389;-54
2022/10/21 03:42:09;;;;;;;24.13;11.97;;;14.80;99.90;;;;;;5091411;28;20443;-54
2022/10/21 03:44:34;;;;;;;23.23;11.33;;;14.80;99.90;;;;;;5091726;28;20385;-54
2022/10/21 03:47:00;;;;;;;26.20;11.40;;;14.90;99.90;;;;;;5089996;28;20382;-54
2022/10/21 03:49:26;;;;;;;22.47;11.03;;;15.00;99.90;;;;;;5091260;28;20402;-54
2022/10/21 03:51:51;;;;;;;20.83;11.20;;;15.00;99.90;;;;;;5090731;28;20378;-55
2022/10/21 03:54:17;;;;;;;23.10;10.90;;;14.90;99.90;;;;;;5091311;28;20389;-54
2022/10/21 03:56:43;;;;;;;23.33;11.35;;;14.90;99.90;;;;;;5091488;28;20531;-54
2022/10/21 03:59:09;;;;;;;23.73;11.00;;;15.00;99.90;;;;;;5087610;28;20493;-54
2022/10/21 04:01:34;;;;;;;21.20;10.75;;;15.20;99.90;;;;;;5090946;28;20476;-54
2022/10/21 04:04:00;;;;;;;21.37;10.30;;;15.20;99.90;;;;;;5090555;28;20393;-55
2022/10/21 04:06:26;;;;;;;24.38;10.45;;;15.30;99.90;;;;;;5090933;28;20377;-54
2022/10/21 04:08:51;;;;;;;17.03;9.67;;;15.30;99.90;;;;;;5088625;28;20395;-59
2022/10/21 04:11:17;;;;;;;19.53;9.40;;;15.20;99.90;;;;;;5084023;28;20427;-58
2022/10/21 04:13:43;;;;;;;20.10;9.80;;;15.40;99.90;;;;;;5090662;28;20874;-57
2022/10/21 04:16:13;;;;;;;23.33;10.00;;;15.40;99.90;;;;;;5107219;28;20449;-57
2022/10/21 04:18:39;;;;;;;23.33;10.50;;;15.40;99.90;;;;;;5111823;28;20388;-57
2022/10/21 04:21:05;;;;;;;26.63;11.80;;;15.50;99.90;;;;;;5110695;28;20381;-57
2022/10/21 04:23:30;;;;;;;22.05;11.18;;;15.50;99.90;;;;;;5111040;28;20377;-58
2022/10/21 04:25:56;;;;;;;27.27;11.43;;;15.40;99.90;;;;;;5110938;28;20407;-57
2022/10/21 04:28:21;;;;;;;26.50;11.53;;;15.30;99.90;;;;;;5111091;28;20376;-57
2022/10/21 04:30:48;;;;;;;23.70;10.90;;;15.40;99.90;;;;;;5110829;28;20504;-59
2022/10/21 04:33:14;;;;;;;23.90;11.30;;;15.30;99.90;;;;;;5103067;28;20406;-58
2022/10/21 04:35:40;;;;;;;22.90;10.30;;;15.20;99.90;;;;;;5088312;28;20376;-58
2022/10/21 04:38:05;;;;;;;19.17;10.13;;;15.30;99.90;;;;;;5090259;28;20393;-57
2022/10/21 04:40:31;;;;;;;20.55;10.30;;;15.30;99.90;;;;;;5090651;28;20759;-55
2022/10/21 04:42:57;;;;;;;22.75;11.02;;;15.40;99.90;;;;;;5089085;28;20383;-55
2022/10/21 04:45:22;;;;;;;21.70;10.53;;;15.40;99.90;;;;;;5103941;28;20474;-57
2022/10/21 04:47:48;;;;;;;26.60;10.70;;;15.40;99.90;;;;;;5090272;28;20444;-58
2022/10/21 04:50:13;;;;;;;20.07;10.30;;;14.80;99.90;;;;;;5090133;28;20895;-57
2022/10/21 04:52:39;;;;;;;21.17;10.10;;;15.40;99.90;;;;;;5090623;28;20382;-57
2022/10/21 04:55:05;;;;;;;20.73;10.50;;;15.40;99.90;;;;;;5089356;28;20389;-57
2022/10/21 04:57:31;;;;;;;21.02;10.50;;;15.40;99.90;;;;;;5089451;28;20370;-57
2022/10/21 04:59:56;;;;;;;20.60;10.20;;;15.40;99.90;;;;;;5081601;28;20727;-58
2022/10/21 05:02:23;;;;;;;21.25;11.18;;;15.40;99.90;;;;;;5086846;28;20452;-56
2022/10/21 05:04:49;;;;;;;21.00;11.43;;;15.50;99.90;;;;;;5088632;28;20390;-58
2022/10/21 05:07:14;;;;;;;22.05;10.45;;;15.60;99.90;;;;;;5088069;28;20412;-57
2022/10/21 05:09:40;;;;;;;21.97;10.63;;;15.60;99.90;;;;;;5090277;28;20442;-56
2022/10/21 05:12:05;;;;;;;21.03;10.20;;;15.60;99.90;;;;;;5088508;28;20875;-56
2022/10/21 05:14:31;;;;;;;23.30;10.00;;;15.60;99.90;;;;;;5085314;28;20433;-56
2022/10/21 05:16:56;;;;;;;24.02;10.15;;;15.60;99.90;;;;;;5081286;28;20880;-56
2022/10/21 05:19:22;;;;;;;20.40;10.03;;;15.60;99.90;;;;;;5085464;28;20488;-56
2022/10/21 05:21:48;;;;;;;20.57;9.60;;;15.60;99.90;;;;;;5089072;28;20461;-57
2022/10/21 05:24:15;;;;;;;24.23;11.90;;;15.70;99.90;;;;;;5087167;28;20401;-56
2022/10/21 05:26:41;;;;;;;23.05;11.82;;;15.80;99.90;;;;;;5088879;28;20400;-56
2022/10/21 05:29:07;;;;;;;19.67;9.77;;;15.90;99.90;;;;;;5089501;28;20382;-56
2022/10/21 05:31:32;;;;;;;18.80;8.05;;;15.90;99.90;;;;;;5085085;28;20452;-56
2022/10/21 05:33:58;;;;;;;14.45;5.13;;;15.80;99.90;;;;;;5086729;28;20420;-56
2022/10/21 05:36:23;;;;;;;13.27;5.33;;;16.00;99.90;;;;;;5068637;28;20440;-56
2022/10/21 05:38:49;;;;;;;11.77;4.73;;;16.10;99.90;;;;;;5089797;28;20382;-58
2022/10/21 05:41:15;;;;;;;16.08;4.85;;;16.20;99.90;;;;;;5088505;28;20397;-56
2022/10/21 05:43:41;;;;;;;10.27;3.73;;;16.20;99.90;;;;;;5087336;28;20390;-54
2022/10/21 05:46:07;;;;;;;12.95;4.10;;;16.30;99.90;;;;;;5088526;28;20370;-54
2022/10/21 05:48:34;;;;;;;15.43;4.85;;;16.30;99.90;;;;;;5090065;28;20810;-54
2022/10/21 05:50:59;;;;;;;14.90;3.45;;;16.50;99.90;;;;;;5089324;28;20739;-54
2022/10/21 05:53:25;;;;;;;14.57;4.00;;;16.50;99.90;;;;;;5089710;28;20378;-54
2022/10/21 05:56:01;;;;;;;16.30;3.93;;;16.60;99.90;;;;;;5089450;28;20461;-55
2022/10/21 05:58:28;;;;;;;12.60;3.85;;;16.60;99.90;;;;;;5089806;28;20373;-54
2022/10/21 06:00:54;;;;;;;12.23;4.20;;;16.70;99.90;;;;;;5089018;28;20386;-55
2022/10/21 06:03:28;;;;;;;10.13;3.40;;;16.60;99.90;;;;;;5088205;28;20384;-57
2022/10/21 06:05:55;;;;;;;11.30;3.70;;;16.70;99.90;;;;;;5083897;28;20397;-57
2022/10/21 06:08:21;;;;;;;11.73;3.70;;;16.70;99.90;;;;;;5089820;28;20405;-57
2022/10/21 06:10:46;;;;;;;13.90;4.57;;;16.60;99.90;;;;;;5089548;28;20871;-56
2022/10/21 06:13:12;;;;;;;13.33;4.37;;;16.70;99.90;;;;;;5088844;28;20381;-56
2022/10/21 06:15:37;;;;;;;11.40;4.00;;;16.80;99.90;;;;;;5089774;28;20732;-56
2022/10/21 06:18:03;;;;;;;16.20;5.18;;;16.70;99.90;;;;;;5089245;28;20402;-56
2022/10/21 06:20:29;;;;;;;11.80;5.10;;;16.80;99.90;;;;;;5089394;28;20390;-57
2022/10/21 06:22:54;;;;;;;10.10;4.00;;;16.80;99.90;;;;;;5088848;28;20473;-56
2022/10/21 06:25:22;;;;;;;11.93;3.55;;;16.80;99.90;;;;;;5089426;28;20474;-55
2022/10/21 06:27:48;;;;;;;15.93;4.10;;;16.80;99.90;;;;;;5089801;28;20381;-55
2022/10/21 06:30:13;;;;;;;10.63;4.10;;;16.90;99.90;;;;;;5089070;28;20428;-55
2022/10/21 06:32:39;;;;;;;13.67;3.77;;;16.90;99.90;;;;;;5088966;28;20413;-55
2022/10/21 06:35:05;;;;;;;13.45;3.72;;;16.90;94.70;;;;;;5088423;28;20812;-55
2022/10/21 06:37:30;;;;;;;11.88;3.75;;;16.80;99.90;;;;;;5091242;28;20374;-55
2022/10/21 06:39:56;;;;;;;15.33;4.90;;;16.70;99.90;;;;;;5093301;28;20374;-55
2022/10/21 06:42:21;;;;;;;15.23;4.10;;;16.70;99.90;;;;;;5093154;28;20413;-56
2022/10/21 06:44:47;;;;;;;13.50;4.23;;;16.80;99.90;;;;;;5094102;28;20831;-55
2022/10/21 06:47:12;;;;;;;12.10;4.90;;;16.90;99.90;;;;;;5092611;28;20460;-55
2022/10/21 06:49:38;;;;;;;16.50;4.60;;;16.80;99.90;;;;;;5093761;28;20825;-55
2022/10/21 06:52:04;;;;;;;17.73;5.67;;;16.80;99.90;;;;;;5092582;28;20980;-55
2022/10/21 06:54:29;;;;;;;17.38;5.57;;;16.80;99.90;;;;;;5093249;28;20378;-55
2022/10/21 06:56:55;;;;;;;13.32;5.18;;;16.70;99.90;;;;;;5092567;28;20385;-55
2022/10/21 06:59:21;;;;;;;17.00;5.40;;;16.70;99.90;;;;;;5075197;28;20719;-55
2022/10/21 07:01:46;;;;;;;13.33;4.97;;;16.60;99.90;;;;;;5092801;28;20393;-55
2022/10/21 07:04:12;;;;;;;14.27;5.07;;;16.60;99.90;;;;;;5092258;28;20546;-55
2022/10/21 07:06:38;;;;;;;20.50;5.40;;;16.50;99.90;;;;;;5093129;28;21029;-55
2022/10/21 07:09:05;;;;;;;14.85;4.60;;;16.50;99.90;;;;;;5092307;28;20382;-55
2022/10/21 07:11:30;;;;;;;11.27;4.57;;;16.60;99.90;;;;;;5093364;28;20831;-55
2022/10/21 07:13:56;;;;;;;13.60;5.27;;;16.60;99.90;;;;;;5092081;28;20382;-55
2022/10/21 07:16:31;;;;;;;16.50;4.80;;;16.70;99.90;;;;;;5092731;28;20382;-55
2022/10/21 07:18:57;;;;;;;15.25;5.10;;;16.70;99.90;;;;;;5092171;28;20374;-56
2022/10/21 07:21:25;;;;;;;15.38;5.00;;;16.70;99.90;;;;;;5092634;28;20374;-55
2022/10/21 07:23:53;;;;;;;15.88;4.28;;;16.70;99.90;;;;;;5092558;28;20451;-57
2022/10/21 07:26:20;;;;;;;15.10;3.80;;;15.60;99.90;;;;;;5092544;28;20432;-55
2022/10/21 07:28:46;;;;;;;12.50;4.80;;;16.80;99.90;;;;;;5092805;28;20454;-55
2022/10/21 07:31:21;;;;;;;12.43;4.20;;;16.80;99.90;;;;;;5091384;28;20426;-55
2022/10/21 07:33:47;;;;;;;13.80;5.10;;;16.90;99.90;;;;;;5092448;28;20704;-56
2022/10/21 07:36:17;;;;;;;14.90;5.37;;;17.00;99.90;;;;;;5091482;28;20381;-56
2022/10/21 07:38:45;;;;;;;18.27;5.57;;;17.00;99.90;;;;;;5092102;28;20455;-55
2022/10/21 07:41:26;;;;;;;16.77;5.03;;;16.80;99.90;;;;;;5091536;28;20378;-55
2022/10/21 07:43:52;;;;;;;18.17;5.70;;;16.80;99.90;;;;;;5091888;28;20382;-55
2022/10/21 07:46:19;;;;;;;12.80;5.43;;;16.70;99.90;;;;;;5092699;28;20396;-55
2022/10/21 07:48:45;;;;;;;15.13;5.65;;;16.60;99.90;;;;;;5091231;28;20382;-55
2022/10/21 07:51:14;;;;;;;15.52;5.35;;;16.60;99.90;;;;;;5091095;28;20398;-56
2022/10/21 07:53:40;;;;;;;15.10;5.90;;;15.40;99.90;;;;;;5091717;28;20377;-55
2022/10/21 07:56:10;;;;;;;15.30;5.78;;;16.50;99.90;;;;;;5091159;28;20835;-55
2022/10/21 07:58:35;;;;;;;16.85;5.55;;;16.60;99.90;;;;;;5092215;28;20386;-55
2022/10/21 08:01:04;;;;;;;13.77;6.07;;;16.70;99.90;;;;;;5091542;28;20378;-55
2022/10/21 08:03:30;;;;;;;11.90;5.40;;;16.80;99.90;;;;;;5091898;28;20390;-55
2022/10/21 08:05:56;;;;;;;16.75;6.68;;;16.80;99.90;;;;;;5091052;28;21223;-56
2022/10/21 08:08:22;;;;;;;18.50;6.60;;;16.80;99.90;;;;;;5091461;28;20419;-55
2022/10/21 08:10:49;;;;;;;18.37;7.97;;;16.70;99.90;;;;;;5092219;28;20410;-55
2022/10/21 08:13:16;;;;;;;20.38;7.03;;;16.60;99.90;;;;;;5090817;28;20738;-55
2022/10/21 08:15:43;;;;;;;17.37;7.40;;;16.60;99.90;;;;;;5092089;28;20367;-55
2022/10/21 08:18:08;;;;;;;19.85;7.75;;;16.60;99.90;;;;;;5091397;28;20464;-55
2022/10/21 08:20:38;;;;;;;14.57;7.60;;;16.60;99.90;;;;;;5091999;28;20966;-55
2022/10/21 08:23:03;;;;;;;19.50;6.90;;;16.60;99.90;;;;;;5090784;28;20456;-55
2022/10/21 08:25:29;;;;;;;14.30;5.78;;;16.50;99.90;;;;;;5091509;28;20870;-55
2022/10/21 08:27:54;;;;;;;16.27;6.70;;;16.40;99.90;;;;;;5090866;28;20405;-55
2022/10/21 08:30:20;;;;;;;16.53;6.40;;;16.30;99.90;;;;;;5091631;28;20413;-55
2022/10/21 08:32:46;;;;;;;20.37;6.70;;;16.30;99.90;;;;;;5091996;28;20402;-55
2022/10/21 08:35:11;;;;;;;16.27;6.70;;;16.30;99.90;;;;;;5090984;28;20774;-55
2022/10/21 08:37:37;;;;;;;14.82;5.93;;;16.20;99.90;;;;;;5090974;28;20455;-56
2022/10/21 08:40:03;;;;;;;15.37;6.57;;;16.20;99.90;;;;;;5090659;28;20528;-55
2022/10/21 08:42:29;;;;;;;15.93;6.10;;;16.30;99.90;;;;;;5091021;28;20875;-55
2022/10/21 08:44:59;;;;;;;14.20;5.87;;;16.30;99.90;;;;;;5090884;28;20370;-57
2022/10/21 08:47:46;;;;;;;19.23;5.72;;;16.40;99.90;;;;;;5091184;28;20396;-55
2022/10/21 08:50:15;;;;;;;16.92;6.10;;;16.40;99.90;;;;;;5090679;28;20491;-55
2022/10/21 08:53:03;;;;;;;17.23;6.45;;;16.40;99.90;;;;;;5090830;28;20515;-55
2022/10/21 08:55:39;;;;;;;15.18;6.45;;;16.50;99.90;;;;;;5091201;28;20709;-55
2022/10/21 08:58:10;;;;;;;17.20;6.70;;;16.50;99.90;;;;;;5090185;28;20432;-55
2022/10/21 09:00:46;;;;;;;12.68;5.82;;;16.60;99.90;;;;;;5090630;28;20377;-55
2022/10/21 09:03:43;;;;;;;15.75;6.50;;;16.50;99.90;;;;;;5089763;28;20480;-56
2022/10/21 09:06:17;;;;;;;17.33;6.00;;;16.40;99.90;;;;;;5089769;28;20366;-56
2022/10/21 09:09:16;;;;;;;15.63;6.70;;;16.40;99.90;;;;;;5090318;28;20465;-56
2022/10/21 09:12:15;;;;;;;22.63;7.05;;;16.50;99.90;;;;;;5090529;28;20393;-56
2022/10/21 09:15:05;;;;;;;14.00;6.20;;;16.40;99.90;;;;;;5090098;28;20429;-56
2022/10/21 09:17:34;;;;;;;15.48;6.00;;;16.40;99.90;;;;;;5090378;28;20389;-56
2022/10/21 09:19:59;;;;;;;18.75;6.60;;;16.30;99.90;;;;;;5089411;28;20559;-57
2022/10/21 09:22:44;;;;;;;17.03;5.90;;;16.40;99.90;;;;;;5089991;28;20458;-57
2022/10/21 09:25:24;;;;;;;18.73;5.97;;;16.50;99.90;;;;;;5088994;28;20482;-56
2022/10/21 09:27:51;;;;;;;19.30;5.80;;;16.60;99.90;;;;;;5090104;28;20382;-56
2022/10/21 09:30:21;;;;;;;13.90;4.75;;;16.70;99.90;;;;;;5088945;28;20405;-56
2022/10/21 09:32:49;;;;;;;11.35;4.80;;;16.80;99.90;;;;;;5089340;28;20408;-56
2022/10/21 09:35:47;;;;;;;15.63;4.30;;;16.80;99.90;;;;;;5089145;28;20897;-56
2022/10/21 09:38:27;;;;;;;14.85;4.72;;;16.90;99.90;;;;;;5088943;28;20386;-56
2022/10/21 09:41:02;;;;;;;11.15;4.30;;;16.90;99.90;;;;;;5089526;28;20386;-57
2022/10/21 09:43:28;;;;;;;15.05;5.03;;;16.90;99.90;;;;;;5089882;28;20382;-56
2022/10/21 09:45:55;;;;;;;14.60;4.70;;;16.90;99.90;;;;;;5071436;28;20394;-57
2022/10/21 09:48:36;;;;;;;16.85;5.00;;;16.80;99.90;;;;;;5089845;28;20847;-57
2022/10/21 09:51:23;;;;;;;15.00;4.80;;;16.80;99.90;;;;;;5089162;28;20424;-56
2022/10/21 09:53:56;;;;;;;11.02;4.35;;;16.60;99.90;;;;;;5089596;28;20459;-56
2022/10/21 09:56:32;;;;;;;11.85;4.90;;;16.50;99.90;;;;;;5089280;28;20375;-56
2022/10/21 09:59:04;;;;;;;12.20;4.43;;;16.40;99.90;;;;;;5088838;28;20877;-57
2022/10/21 10:01:30;;;;;;;13.50;4.25;;;16.60;99.90;;;;;;5089641;28;20429;-56
2022/10/21 10:03:56;;;;;;;12.47;4.30;;;16.90;99.90;;;;;;5089154;28;20452;-58
2022/10/21 10:06:39;;;;;;;9.30;3.50;;;17.10;99.90;;;;;;5089453;28;20742;-57
2022/10/21 10:09:15;;;;;;;9.80;3.67;;;17.20;99.90;;;;;;5088816;28;20461;-57
2022/10/21 10:11:53;;;;;;;10.67;3.57;;;17.50;99.90;;;;;;5089964;28;20402;-56
2022/10/21 10:14:29;;;;;;;10.18;3.90;;;17.70;99.90;;;;;;5093441;28;20457;-56
2022/10/21 10:16:57;;;;;;;11.87;3.43;;;17.90;99.90;;;;;;5093193;28;20485;-58
2022/10/21 10:19:26;;;;;;;10.00;4.15;;;18.10;99.90;;;;;;5093700;28;20378;-56
2022/10/21 10:22:11;;;;;;;13.47;3.53;;;18.10;99.90;;;;;;5093744;28;20397;-57
2022/10/21 10:24:39;;;;;;;11.77;3.38;;;18.10;99.90;;;;;;5093533;28;20386;-57
2022/10/21 10:27:26;;;;;;;10.00;3.10;;;18.20;99.90;;;;;;5092807;28;20406;-57
2022/10/21 10:29:55;;;;;;;12.02;3.00;;;18.00;1.00;;;;;;5092992;28;20414;-57
2022/10/21 10:32:24;;;;;;;11.98;3.50;;;18.20;62.40;;;;;;5093017;28;20403;-56
2022/10/21 10:35:25;;;;;;;13.38;3.15;;;18.20;99.90;;;;;;5093416;28;20438;-57
2022/10/21 10:37:52;;;;;;;9.50;2.80;;;18.40;1.00;;;;;;5087873;28;20405;-56
2022/10/21 10:40:23;;;;;;;8.23;2.95;;;18.30;1.00;;;;;;5092418;28;20376;-57
2022/10/21 10:42:59;;;;;;;8.98;3.05;;;18.30;1.00;;;;;;5093500;28;20458;-56
2022/10/21 10:45:25;;;;;;;8.30;2.72;;;18.30;1.00;;;;;;5093411;28;20366;-56
2022/10/21 10:47:55;;;;;;;11.43;2.80;;;18.30;1.00;;;;;;5093142;28;20526;-57
2022/10/21 10:50:41;;;;;;;10.30;2.80;;;18.40;1.00;;;;;;5092622;28;20406;-56
2022/10/21 10:53:20;;;;;;;8.75;2.45;;;18.10;1.00;;;;;;5091948;28;20378;-56
2022/10/21 10:55:58;;;;;;;8.57;2.58;;;18.20;1.00;;;;;;5092771;28;20389;-56
2022/10/21 10:58:28;;;;;;;7.70;2.50;;;18.10;1.00;;;;;;5092854;28;20431;-57
2022/10/21 11:00:58;;;;;;;10.45;2.70;;;18.10;1.00;;;;;;5093055;28;20378;-56
2022/10/21 11:03:37;;;;;;;7.82;2.47;;;18.20;1.00;;;;;;5092986;28;20374;-57
2022/10/21 11:06:15;;;;;;;8.73;2.30;;;18.20;1.00;;;;;;5092297;28;20425;-57
2022/10/21 11:08:53;;;;;;;10.32;2.42;;;18.40;1.00;;;;;;5092839;28;20384;-56
2022/10/21 11:11:29;;;;;;;8.13;2.47;;;18.50;1.00;;;;;;5092125;28;20490;-57
2022/10/21 11:13:56;;;;;;;7.00;2.20;;;18.60;1.00;;;;;;5092954;28;20382;-57
2022/10/21 11:16:47;;;;;;;6.35;2.13;;;17.20;1.00;;;;;;5092838;28;20390;-56
2022/10/21 11:19:38;;;;;;;7.57;2.58;;;18.30;1.00;;;;;;5091710;28;20725;-57
2022/10/21 11:22:40;;;;;;;8.68;2.17;;;18.20;1.00;;;;;;5092545;28;20859;-57
2022/10/21 11:25:24;;;;;;;5.47;1.60;;;18.20;1.00;;;;;;5090699;28;20792;-57
2022/10/21 11:27:55;;;;;;;8.73;1.85;;;18.20;1.00;;;;;;5087922;28;20483;-56
2022/10/21 11:30:26;;;;;;;8.30;1.50;;;18.40;1.00;;;;;;5078888;28;20416;-57
2022/10/21 11:33:25;;;;;;;6.25;1.77;;;18.50;1.00;;;;;;5091126;28;20450;-57
2022/10/21 11:36:14;;;;;;;7.75;1.80;;;18.60;1.00;;;;;;5088816;28;20972;-57
2022/10/21 11:39:12;;;;;;;7.25;1.45;;;18.60;99.90;;;;;;5071986;28;20445;-57
2022/10/21 11:41:47;;;;;;;5.50;1.90;;;18.70;99.90;;;;;;5071446;28;20857;-57
2022/10/21 11:44:40;;;;;;;7.10;1.70;;;18.80;99.90;;;;;;5074261;28;20396;-57
2022/10/21 11:47:27;;;;;;;5.43;1.20;;;19.10;99.90;;;;;;5090489;28;20385;-57
2022/10/21 11:49:58;;;;;;;6.75;1.10;;;19.00;99.90;;;;;;5092010;28;20915;-57
2022/10/21 11:52:36;;;;;;;5.35;1.00;;;19.00;99.90;;;;;;5092013;28;20465;-57
2022/10/21 11:55:08;;;;;;;5.65;1.15;;;18.70;99.90;;;;;;5091657;28;20381;-57
2022/10/21 11:57:48;;;;;;;6.30;0.95;;;18.80;99.90;;;;;;5092055;28;20382;-57
2022/10/21 12:00:24;;;;;;;4.40;0.90;;;18.90;99.90;;;;;;5091069;28;20386;-57
2022/10/21 12:03:09;;;;;;;4.90;0.90;;;18.80;99.90;;;;;;5091612;28;20398;-57
2022/10/21 12:05:45;;;;;;;5.30;1.10;;;18.80;1.00;;;;;;5092018;28;20470;-56
2022/10/21 12:08:17;;;;;;;4.30;0.90;;;18.70;99.90;;;;;;5090804;28;20374;-57
2022/10/21 12:10:57;;;;;;;5.10;1.33;;;18.80;99.90;;;;;;5091334;28;20410;-57
2022/10/21 12:13:49;;;;;;;4.30;0.80;;;18.70;45.30;;;;;;5091471;28;20424;-57
2022/10/21 12:16:23;;;;;;;5.80;1.20;;;18.60;77.90;;;;;;5090917;28;20370;-57
2022/10/21 12:18:59;;;;;;;5.63;1.00;;;18.70;99.90;;;;;;5091622;28;20378;-57
2022/10/21 12:21:29;;;;;;;5.23;1.10;;;18.40;32.70;;;;;;5091629;28;20386;-57
2022/10/21 12:24:24;;;;;;;6.93;1.40;;;18.60;1.00;;;;;;5091661;28;20847;-57
2022/10/21 12:27:17;;;;;;;4.70;1.00;;;18.60;99.90;;;;;;5087834;28;20848;-57
2022/10/21 12:30:04;;;;;;;6.82;1.20;;;18.60;88.00;;;;;;5081285;28;20416;-57
2022/10/21 12:32:58;;;;;;;5.90;1.00;;;18.70;24.50;;;;;;5088763;28;20451;-57
2022/10/21 12:35:40;;;;;;;5.25;1.10;;;18.60;1.00;;;;;;5090321;28;20386;-57
2022/10/21 12:38:20;;;;;;;5.53;1.15;;;18.60;1.00;;;;;;5090557;28;20843;-57
2022/10/21 12:40:47;;;;;;;4.20;0.80;;;18.60;30.90;;;;;;5089501;28;20382;-57
2022/10/21 12:43:18;;;;;;;5.13;1.10;;;18.70;1.00;;;;;;5089523;28;20390;-57
2022/10/21 12:45:45;;;;;;;4.80;0.90;;;18.70;1.00;;;;;;5090536;28;20923;-56
2022/10/21 12:48:26;;;;;;;6.40;1.00;;;18.80;1.00;;;;;;5088363;28;20463;-56
2022/10/21 12:50:57;;;;;;;4.70;1.05;;;18.70;1.00;;;;;;5088449;28;20409;-55
2022/10/21 12:54:01;;;;;;;6.05;1.20;;;18.70;99.90;;;;;;5090368;28;20390;-55
2022/10/21 12:56:33;;;;;;;5.10;0.82;;;18.60;99.90;;;;;;5033861;28;20386;-55
2022/10/21 12:59:03;;;;;;;4.87;0.90;;;18.50;99.90;;;;;;5089639;28;20386;-56